sensor_id;sensor_type;location;lat;lon;timestamp;P1;durP1;ratioP1;P2;durP2;ratioP2
1014;SDS011;8170;48.118;11.628;2023-04-15T00:01:01;4.55;;;3.30;;
1014;SDS011;8170;48.118;11.628;2023-04-15T00:02:14;4.57;;;3.40;;
1014;SDS011;8170;48.118;11.628;2023-04-15T00:03:24;5.95;;;3.90;;
1014;SDS011;8170;48.118;11.628;2023-04-15T00:04:31;5.32;;;3.42;;
1014;SDS011;8170;48.118;11.628;2023-04-15T00:05:34;6.90;;;3.60;;
1014;SDS011;8170;48.118;11.628;2023-04-15T00:06:37;6.70;;;3.00;;
1014;SDS011;8170;48.118;11.628;2023-04-15T00:07:40;5.35;;;3.70;;
1014;SDS011;8170;48.118;11.628;2023-04-15T00:08:43;4.18;;;3.08;;
1014;SDS011;8170;48.118;11.628;2023-04-15T00:09:50;4.93;;;3.60;;
1014;SDS011;8170;48.118;11.628;2023-04-15T00:10:57;6.45;;;3.75;;
1014;SDS011;8170;48.118;11.628;2023-04-15T00:12:03;6.72;;;3.83;;
1014;SDS011;8170;48.118;11.628;2023-04-15T00:13:11;5.05;;;4.50;;
1014;SDS011;8170;48.118;11.628;2023-04-15T00:14:13;6.22;;;3.63;;
1014;SDS011;8170;48.118;11.628;2023-04-15T00:15:21;6.85;;;3.90;;
1014;SDS011;8170;48.118;11.628;2023-04-15T00:16:23;5.40;;;3.78;;
1014;SDS011;8170;48.118;11.628;2023-04-15T00:17:34;6.80;;;3.88;;
1014;SDS011;8170;48.118;11.628;2023-04-15T00:18:41;6.22;;;3.90;;
1014;SDS011;8170;48.118;11.628;2023-04-15T00:19:49;4.63;;;3.50;;
1014;SDS011;8170;48.118;11.628;2023-04-15T00:20:51;5.32;;;3.35;;
1014;SDS011;8170;48.118;11.628;2023-04-15T00:21:54;6.32;;;3.83;;
1014;SDS011;8170;48.118;11.628;2023-04-15T00:23:00;4.95;;;3.35;;
1014;SDS011;8170;48.118;11.628;2023-04-15T00:24:04;5.43;;;3.92;;
1014;SDS011;8170;48.118;11.628;2023-04-15T00:25:12;5.03;;;3.88;;
1014;SDS011;8170;48.118;11.628;2023-04-15T00:26:20;8.82;;;4.55;;
1014;SDS011;8170;48.118;11.628;2023-04-15T00:27:23;5.10;;;3.70;;
1014;SDS011;8170;48.118;11.628;2023-04-15T00:28:28;6.85;;;3.85;;
1014;SDS011;8170;48.118;11.628;2023-04-15T00:29:31;5.93;;;3.72;;
1014;SDS011;8170;48.118;11.628;2023-04-15T00:30:35;9.55;;;4.65;;
1014;SDS011;8170;48.118;11.628;2023-04-15T00:31:39;6.25;;;4.20;;
1014;SDS011;8170;48.118;11.628;2023-04-15T00:32:43;7.93;;;4.38;;
1014;SDS011;8170;48.118;11.628;2023-04-15T00:33:53;8.23;;;4.50;;
1014;SDS011;8170;48.118;11.628;2023-04-15T00:35:01;5.43;;;4.03;;
1014;SDS011;8170;48.118;11.628;2023-04-15T00:36:05;4.80;;;3.63;;
1014;SDS011;8170;48.118;11.628;2023-04-15T00:37:11;7.25;;;4.15;;
1014;SDS011;8170;48.118;11.628;2023-04-15T00:38:13;6.68;;;4.13;;
1014;SDS011;8170;48.118;11.628;2023-04-15T00:39:22;3.97;;;3.13;;
1014;SDS011;8170;48.118;11.628;2023-04-15T00:40:24;6.60;;;4.30;;
1014;SDS011;8170;48.118;11.628;2023-04-15T00:41:30;6.47;;;4.43;;
1014;SDS011;8170;48.118;11.628;2023-04-15T00:42:35;5.45;;;3.70;;
1014;SDS011;8170;48.118;11.628;2023-04-15T00:43:40;5.80;;;4.28;;
1014;SDS011;8170;48.118;11.628;2023-04-15T00:44:44;8.77;;;4.20;;
1014;SDS011;8170;48.118;11.628;2023-04-15T00:45:47;4.38;;;3.50;;
1014;SDS011;8170;48.118;11.628;2023-04-15T00:46:50;8.93;;;3.25;;
1014;SDS011;8170;48.118;11.628;2023-04-15T00:47:54;5.93;;;3.47;;
1014;SDS011;8170;48.118;11.628;2023-04-15T00:49:04;5.35;;;3.53;;
1014;SDS011;8170;48.118;11.628;2023-04-15T00:50:11;5.47;;;3.90;;
1014;SDS011;8170;48.118;11.628;2023-04-15T00:51:13;7.88;;;5.32;;
1014;SDS011;8170;48.118;11.628;2023-04-15T00:52:42;6.45;;;4.10;;
1014;SDS011;8170;48.118;11.628;2023-04-15T00:53:45;4.95;;;4.25;;
1014;SDS011;8170;48.118;11.628;2023-04-15T00:54:52;6.30;;;4.70;;
1014;SDS011;8170;48.118;11.628;2023-04-15T00:55:55;7.45;;;4.22;;
1014;SDS011;8170;48.118;11.628;2023-04-15T00:57:00;6.10;;;4.20;;
1014;SDS011;8170;48.118;11.628;2023-04-15T00:58:04;6.07;;;4.45;;
1014;SDS011;8170;48.118;11.628;2023-04-15T00:59:06;6.97;;;4.30;;
1014;SDS011;8170;48.118;11.628;2023-04-15T01:00:13;8.07;;;3.90;;
1014;SDS011;8170;48.118;11.628;2023-04-15T01:01:20;7.50;;;3.78;;
1014;SDS011;8170;48.118;11.628;2023-04-15T01:02:25;6.60;;;4.32;;
1014;SDS011;8170;48.118;11.628;2023-04-15T01:03:42;4.85;;;4.03;;
1014;SDS011;8170;48.118;11.628;2023-04-15T01:04:52;6.50;;;3.67;;
1014;SDS011;8170;48.118;11.628;2023-04-15T01:05:55;6.10;;;4.28;;
1014;SDS011;8170;48.118;11.628;2023-04-15T01:07:00;4.72;;;3.83;;
1014;SDS011;8170;48.118;11.628;2023-04-15T01:08:03;8.18;;;4.72;;
1014;SDS011;8170;48.118;11.628;2023-04-15T01:09:09;6.75;;;4.45;;
1014;SDS011;8170;48.118;11.628;2023-04-15T01:10:13;8.55;;;4.22;;
1014;SDS011;8170;48.118;11.628;2023-04-15T01:11:19;6.38;;;4.18;;
1014;SDS011;8170;48.118;11.628;2023-04-15T01:12:25;7.53;;;4.13;;
1014;SDS011;8170;48.118;11.628;2023-04-15T01:13:32;5.95;;;4.82;;
1014;SDS011;8170;48.118;11.628;2023-04-15T01:14:38;8.15;;;4.75;;
1014;SDS011;8170;48.118;11.628;2023-04-15T01:15:42;8.82;;;4.10;;
1014;SDS011;8170;48.118;11.628;2023-04-15T01:16:47;5.15;;;3.83;;
1014;SDS011;8170;48.118;11.628;2023-04-15T01:17:57;6.28;;;3.70;;
1014;SDS011;8170;48.118;11.628;2023-04-15T01:19:01;7.35;;;3.85;;
1014;SDS011;8170;48.118;11.628;2023-04-15T01:20:06;4.38;;;3.80;;
1014;SDS011;8170;48.118;11.628;2023-04-15T01:21:12;5.65;;;4.45;;
1014;SDS011;8170;48.118;11.628;2023-04-15T01:22:14;7.03;;;4.35;;
1014;SDS011;8170;48.118;11.628;2023-04-15T01:23:20;4.53;;;4.07;;
1014;SDS011;8170;48.118;11.628;2023-04-15T01:24:23;7.30;;;4.15;;
1014;SDS011;8170;48.118;11.628;2023-04-15T01:25:33;10.48;;;4.10;;
1014;SDS011;8170;48.118;11.628;2023-04-15T01:26:37;5.22;;;4.15;;
1014;SDS011;8170;48.118;11.628;2023-04-15T01:27:41;3.70;;;3.35;;
1014;SDS011;8170;48.118;11.628;2023-04-15T01:28:44;5.43;;;3.90;;
1014;SDS011;8170;48.118;11.628;2023-04-15T01:29:51;4.28;;;3.45;;
1014;SDS011;8170;48.118;11.628;2023-04-15T01:31:04;5.00;;;3.80;;
1014;SDS011;8170;48.118;11.628;2023-04-15T01:32:11;4.75;;;3.72;;
1014;SDS011;8170;48.118;11.628;2023-04-15T01:33:13;5.32;;;3.92;;
1014;SDS011;8170;48.118;11.628;2023-04-15T01:34:22;5.40;;;3.88;;
1014;SDS011;8170;48.118;11.628;2023-04-15T01:35:27;6.38;;;4.25;;
1014;SDS011;8170;48.118;11.628;2023-04-15T01:36:38;5.53;;;3.70;;
1014;SDS011;8170;48.118;11.628;2023-04-15T01:37:40;8.88;;;4.90;;
1014;SDS011;8170;48.118;11.628;2023-04-15T01:38:43;6.93;;;4.35;;
1014;SDS011;8170;48.118;11.628;2023-04-15T01:40:05;7.25;;;3.90;;
1014;SDS011;8170;48.118;11.628;2023-04-15T01:41:16;5.07;;;3.78;;
1014;SDS011;8170;48.118;11.628;2023-04-15T01:42:25;4.53;;;3.72;;
1014;SDS011;8170;48.118;11.628;2023-04-15T01:43:34;5.60;;;4.40;;
1014;SDS011;8170;48.118;11.628;2023-04-15T01:44:43;4.97;;;3.88;;
1014;SDS011;8170;48.118;11.628;2023-04-15T01:45:52;7.75;;;4.15;;
1014;SDS011;8170;48.118;11.628;2023-04-15T01:46:57;9.57;;;4.07;;
1014;SDS011;8170;48.118;11.628;2023-04-15T01:48:02;4.78;;;4.25;;
1014;SDS011;8170;48.118;11.628;2023-04-15T01:49:04;4.80;;;3.97;;
1014;SDS011;8170;48.118;11.628;2023-04-15T01:50:23;4.72;;;3.97;;
1014;SDS011;8170;48.118;11.628;2023-04-15T01:51:31;5.68;;;3.80;;
1014;SDS011;8170;48.118;11.628;2023-04-15T01:52:34;5.35;;;3.72;;
1014;SDS011;8170;48.118;11.628;2023-04-15T01:53:40;9.57;;;4.30;;
1014;SDS011;8170;48.118;11.628;2023-04-15T01:54:43;7.55;;;4.25;;
1014;SDS011;8170;48.118;11.628;2023-04-15T01:55:46;7.53;;;4.70;;
1014;SDS011;8170;48.118;11.628;2023-04-15T01:56:50;10.70;;;4.93;;
1014;SDS011;8170;48.118;11.628;2023-04-15T01:57:52;8.73;;;5.35;;
1014;SDS011;8170;48.118;11.628;2023-04-15T01:58:58;8.10;;;4.50;;
1014;SDS011;8170;48.118;11.628;2023-04-15T02:00:03;5.35;;;3.78;;
1014;SDS011;8170;48.118;11.628;2023-04-15T02:01:15;7.35;;;4.13;;
1014;SDS011;8170;48.118;11.628;2023-04-15T02:02:20;7.15;;;4.85;;
1014;SDS011;8170;48.118;11.628;2023-04-15T02:03:24;6.57;;;3.58;;
1014;SDS011;8170;48.118;11.628;2023-04-15T02:04:26;5.18;;;4.25;;
1014;SDS011;8170;48.118;11.628;2023-04-15T02:05:33;6.28;;;4.40;;
1014;SDS011;8170;48.118;11.628;2023-04-15T02:06:39;4.75;;;3.80;;
1014;SDS011;8170;48.118;11.628;2023-04-15T02:07:42;7.53;;;4.00;;
1014;SDS011;8170;48.118;11.628;2023-04-15T02:08:44;9.75;;;5.07;;
1014;SDS011;8170;48.118;11.628;2023-04-15T02:09:48;5.45;;;4.03;;
1014;SDS011;8170;48.118;11.628;2023-04-15T02:10:52;5.28;;;4.38;;
1014;SDS011;8170;48.118;11.628;2023-04-15T02:11:57;6.53;;;4.22;;
1014;SDS011;8170;48.118;11.628;2023-04-15T02:13:02;4.60;;;3.90;;
1014;SDS011;8170;48.118;11.628;2023-04-15T02:14:05;7.50;;;5.35;;
1014;SDS011;8170;48.118;11.628;2023-04-15T02:15:10;7.65;;;4.38;;
1014;SDS011;8170;48.118;11.628;2023-04-15T02:16:16;6.40;;;4.50;;
1014;SDS011;8170;48.118;11.628;2023-04-15T02:17:19;6.05;;;4.43;;
1014;SDS011;8170;48.118;11.628;2023-04-15T02:18:24;8.57;;;4.65;;
1014;SDS011;8170;48.118;11.628;2023-04-15T02:19:26;6.82;;;4.82;;
1014;SDS011;8170;48.118;11.628;2023-04-15T02:20:29;9.15;;;4.40;;
1014;SDS011;8170;48.118;11.628;2023-04-15T02:21:32;5.88;;;4.30;;
1014;SDS011;8170;48.118;11.628;2023-04-15T02:22:37;6.03;;;4.68;;
1014;SDS011;8170;48.118;11.628;2023-04-15T02:23:40;5.85;;;4.10;;
1014;SDS011;8170;48.118;11.628;2023-04-15T02:24:46;5.35;;;3.55;;
1014;SDS011;8170;48.118;11.628;2023-04-15T02:25:52;6.57;;;4.05;;
1014;SDS011;8170;48.118;11.628;2023-04-15T02:26:59;5.45;;;4.78;;
1014;SDS011;8170;48.118;11.628;2023-04-15T02:28:02;6.57;;;4.10;;
1014;SDS011;8170;48.118;11.628;2023-04-15T02:29:13;6.57;;;5.00;;
1014;SDS011;8170;48.118;11.628;2023-04-15T02:30:20;5.60;;;4.82;;
1014;SDS011;8170;48.118;11.628;2023-04-15T02:31:24;5.32;;;4.55;;
1014;SDS011;8170;48.118;11.628;2023-04-15T02:32:27;8.43;;;4.57;;
1014;SDS011;8170;48.118;11.628;2023-04-15T02:33:32;4.28;;;3.75;;
1014;SDS011;8170;48.118;11.628;2023-04-15T02:34:38;4.78;;;3.95;;
1014;SDS011;8170;48.118;11.628;2023-04-15T02:35:42;7.50;;;4.22;;
1014;SDS011;8170;48.118;11.628;2023-04-15T02:36:45;6.45;;;4.38;;
1014;SDS011;8170;48.118;11.628;2023-04-15T02:37:58;6.38;;;4.55;;
1014;SDS011;8170;48.118;11.628;2023-04-15T02:39:11;6.35;;;4.75;;
1014;SDS011;8170;48.118;11.628;2023-04-15T02:40:15;7.15;;;4.93;;
1014;SDS011;8170;48.118;11.628;2023-04-15T02:41:22;7.90;;;4.57;;
1014;SDS011;8170;48.118;11.628;2023-04-15T02:42:32;9.52;;;5.22;;
1014;SDS011;8170;48.118;11.628;2023-04-15T02:43:35;6.40;;;4.60;;
1014;SDS011;8170;48.118;11.628;2023-04-15T02:44:38;8.35;;;4.18;;
1014;SDS011;8170;48.118;11.628;2023-04-15T02:45:41;6.60;;;5.05;;
1014;SDS011;8170;48.118;11.628;2023-04-15T02:46:44;7.10;;;4.10;;
1014;SDS011;8170;48.118;11.628;2023-04-15T02:47:51;6.45;;;4.68;;
1014;SDS011;8170;48.118;11.628;2023-04-15T02:48:53;5.85;;;4.68;;
1014;SDS011;8170;48.118;11.628;2023-04-15T02:50:01;7.10;;;4.93;;
1014;SDS011;8170;48.118;11.628;2023-04-15T02:51:11;8.02;;;4.00;;
1014;SDS011;8170;48.118;11.628;2023-04-15T02:52:23;7.65;;;4.40;;
1014;SDS011;8170;48.118;11.628;2023-04-15T02:53:25;6.85;;;5.05;;
1014;SDS011;8170;48.118;11.628;2023-04-15T02:54:30;5.88;;;4.40;;
1014;SDS011;8170;48.118;11.628;2023-04-15T02:55:34;7.05;;;4.22;;
1014;SDS011;8170;48.118;11.628;2023-04-15T02:56:41;7.57;;;5.10;;
1014;SDS011;8170;48.118;11.628;2023-04-15T02:57:45;7.03;;;4.72;;
1014;SDS011;8170;48.118;11.628;2023-04-15T02:58:50;8.48;;;5.05;;
1014;SDS011;8170;48.118;11.628;2023-04-15T02:59:57;5.90;;;4.85;;
1014;SDS011;8170;48.118;11.628;2023-04-15T03:01:00;7.95;;;4.63;;
1014;SDS011;8170;48.118;11.628;2023-04-15T03:02:02;7.93;;;4.93;;
1014;SDS011;8170;48.118;11.628;2023-04-15T03:03:12;6.57;;;5.05;;
1014;SDS011;8170;48.118;11.628;2023-04-15T03:04:19;7.53;;;4.75;;
1014;SDS011;8170;48.118;11.628;2023-04-15T03:05:21;8.23;;;4.90;;
1014;SDS011;8170;48.118;11.628;2023-04-15T03:06:33;8.13;;;4.70;;
1014;SDS011;8170;48.118;11.628;2023-04-15T03:07:35;9.55;;;5.18;;
1014;SDS011;8170;48.118;11.628;2023-04-15T03:08:40;6.82;;;4.88;;
1014;SDS011;8170;48.118;11.628;2023-04-15T03:09:42;6.40;;;4.93;;
1014;SDS011;8170;48.118;11.628;2023-04-15T03:10:48;8.32;;;5.00;;
1014;SDS011;8170;48.118;11.628;2023-04-15T03:11:52;6.43;;;4.88;;
1014;SDS011;8170;48.118;11.628;2023-04-15T03:13:00;7.15;;;5.22;;
1014;SDS011;8170;48.118;11.628;2023-04-15T03:14:02;5.13;;;4.07;;
1014;SDS011;8170;48.118;11.628;2023-04-15T03:15:09;7.88;;;4.57;;
1014;SDS011;8170;48.118;11.628;2023-04-15T03:16:20;5.65;;;3.80;;
1014;SDS011;8170;48.118;11.628;2023-04-15T03:17:23;4.60;;;3.97;;
1014;SDS011;8170;48.118;11.628;2023-04-15T03:18:26;8.95;;;4.45;;
1014;SDS011;8170;48.118;11.628;2023-04-15T03:19:42;8.70;;;4.57;;
1014;SDS011;8170;48.118;11.628;2023-04-15T03:20:45;7.20;;;4.13;;
1014;SDS011;8170;48.118;11.628;2023-04-15T03:21:48;5.75;;;4.57;;
1014;SDS011;8170;48.118;11.628;2023-04-15T03:22:50;6.32;;;3.92;;
1014;SDS011;8170;48.118;11.628;2023-04-15T03:23:55;8.18;;;4.95;;
1014;SDS011;8170;48.118;11.628;2023-04-15T03:25:01;6.25;;;4.60;;
1014;SDS011;8170;48.118;11.628;2023-04-15T03:26:06;7.28;;;4.88;;
1014;SDS011;8170;48.118;11.628;2023-04-15T03:27:10;8.13;;;5.68;;
1014;SDS011;8170;48.118;11.628;2023-04-15T03:28:14;9.27;;;4.95;;
1014;SDS011;8170;48.118;11.628;2023-04-15T03:29:17;5.45;;;4.03;;
1014;SDS011;8170;48.118;11.628;2023-04-15T03:30:21;4.90;;;3.75;;
1014;SDS011;8170;48.118;11.628;2023-04-15T03:31:24;10.93;;;5.40;;
1014;SDS011;8170;48.118;11.628;2023-04-15T03:32:27;9.73;;;4.80;;
1014;SDS011;8170;48.118;11.628;2023-04-15T03:33:31;6.90;;;4.20;;
1014;SDS011;8170;48.118;11.628;2023-04-15T03:34:34;6.85;;;3.90;;
1014;SDS011;8170;48.118;11.628;2023-04-15T03:35:44;7.05;;;4.57;;
1014;SDS011;8170;48.118;11.628;2023-04-15T03:36:51;5.55;;;4.40;;
1014;SDS011;8170;48.118;11.628;2023-04-15T03:37:54;6.50;;;4.82;;
1014;SDS011;8170;48.118;11.628;2023-04-15T03:39:04;5.35;;;3.50;;
1014;SDS011;8170;48.118;11.628;2023-04-15T03:40:09;7.20;;;4.32;;
1014;SDS011;8170;48.118;11.628;2023-04-15T03:41:12;5.40;;;4.03;;
1014;SDS011;8170;48.118;11.628;2023-04-15T03:42:15;8.90;;;4.60;;
1014;SDS011;8170;48.118;11.628;2023-04-15T03:43:22;5.75;;;4.22;;
1014;SDS011;8170;48.118;11.628;2023-04-15T03:44:25;5.50;;;4.25;;
1014;SDS011;8170;48.118;11.628;2023-04-15T03:45:31;5.60;;;3.83;;
1014;SDS011;8170;48.118;11.628;2023-04-15T03:46:34;8.10;;;4.60;;
1014;SDS011;8170;48.118;11.628;2023-04-15T03:47:41;7.22;;;3.83;;
1014;SDS011;8170;48.118;11.628;2023-04-15T03:48:44;7.20;;;4.95;;
1014;SDS011;8170;48.118;11.628;2023-04-15T03:49:49;5.22;;;4.30;;
1014;SDS011;8170;48.118;11.628;2023-04-15T03:50:53;6.03;;;4.10;;
1014;SDS011;8170;48.118;11.628;2023-04-15T03:51:55;9.48;;;4.70;;
1014;SDS011;8170;48.118;11.628;2023-04-15T03:53:03;9.68;;;4.80;;
1014;SDS011;8170;48.118;11.628;2023-04-15T03:54:05;7.07;;;4.50;;
1014;SDS011;8170;48.118;11.628;2023-04-15T03:55:08;5.50;;;3.97;;
1014;SDS011;8170;48.118;11.628;2023-04-15T03:56:10;7.50;;;4.18;;
1014;SDS011;8170;48.118;11.628;2023-04-15T03:57:13;7.43;;;4.47;;
1014;SDS011;8170;48.118;11.628;2023-04-15T03:58:15;4.30;;;3.70;;
1014;SDS011;8170;48.118;11.628;2023-04-15T03:59:24;5.93;;;4.28;;
1014;SDS011;8170;48.118;11.628;2023-04-15T04:00:29;6.85;;;4.07;;
1014;SDS011;8170;48.118;11.628;2023-04-15T04:01:32;8.27;;;4.30;;
1014;SDS011;8170;48.118;11.628;2023-04-15T04:02:34;4.65;;;3.83;;
1014;SDS011;8170;48.118;11.628;2023-04-15T04:03:37;7.15;;;3.63;;
1014;SDS011;8170;48.118;11.628;2023-04-15T04:04:40;4.50;;;3.55;;
1014;SDS011;8170;48.118;11.628;2023-04-15T04:05:44;4.75;;;3.20;;
1014;SDS011;8170;48.118;11.628;2023-04-15T04:06:53;5.22;;;4.00;;
1014;SDS011;8170;48.118;11.628;2023-04-15T04:08:09;5.25;;;3.70;;
1014;SDS011;8170;48.118;11.628;2023-04-15T04:09:14;5.18;;;4.10;;
1014;SDS011;8170;48.118;11.628;2023-04-15T04:10:17;6.38;;;3.58;;
1014;SDS011;8170;48.118;11.628;2023-04-15T04:11:19;8.82;;;4.00;;
1014;SDS011;8170;48.118;11.628;2023-04-15T04:12:23;4.78;;;4.15;;
1014;SDS011;8170;48.118;11.628;2023-04-15T04:13:25;7.13;;;4.35;;
1014;SDS011;8170;48.118;11.628;2023-04-15T04:14:31;8.52;;;4.45;;
1014;SDS011;8170;48.118;11.628;2023-04-15T04:15:34;5.25;;;3.80;;
1014;SDS011;8170;48.118;11.628;2023-04-15T04:16:37;4.07;;;3.50;;
1014;SDS011;8170;48.118;11.628;2023-04-15T04:17:39;5.65;;;4.25;;
1014;SDS011;8170;48.118;11.628;2023-04-15T04:18:42;6.28;;;3.85;;
1014;SDS011;8170;48.118;11.628;2023-04-15T04:19:44;6.95;;;3.45;;
1014;SDS011;8170;48.118;11.628;2023-04-15T04:20:53;3.78;;;3.35;;
1014;SDS011;8170;48.118;11.628;2023-04-15T04:21:56;3.78;;;3.30;;
1014;SDS011;8170;48.118;11.628;2023-04-15T04:23:02;6.32;;;3.50;;
1014;SDS011;8170;48.118;11.628;2023-04-15T04:24:04;5.35;;;3.60;;
1014;SDS011;8170;48.118;11.628;2023-04-15T04:25:08;5.82;;;3.80;;
1014;SDS011;8170;48.118;11.628;2023-04-15T04:26:11;8.10;;;4.10;;
1014;SDS011;8170;48.118;11.628;2023-04-15T04:27:14;4.72;;;4.15;;
1014;SDS011;8170;48.118;11.628;2023-04-15T04:28:16;5.97;;;3.08;;
1014;SDS011;8170;48.118;11.628;2023-04-15T04:29:22;5.75;;;3.55;;
1014;SDS011;8170;48.118;11.628;2023-04-15T04:30:25;6.60;;;4.05;;
1014;SDS011;8170;48.118;11.628;2023-04-15T04:31:28;6.28;;;4.63;;
1014;SDS011;8170;48.118;11.628;2023-04-15T04:32:31;4.43;;;3.35;;
1014;SDS011;8170;48.118;11.628;2023-04-15T04:33:34;4.53;;;3.47;;
1014;SDS011;8170;48.118;11.628;2023-04-15T04:34:36;4.28;;;3.30;;
1014;SDS011;8170;48.118;11.628;2023-04-15T04:35:40;5.85;;;3.92;;
1014;SDS011;8170;48.118;11.628;2023-04-15T04:36:42;7.10;;;3.83;;
1014;SDS011;8170;48.118;11.628;2023-04-15T04:37:45;7.72;;;4.30;;
1014;SDS011;8170;48.118;11.628;2023-04-15T04:38:48;3.97;;;3.40;;
1014;SDS011;8170;48.118;11.628;2023-04-15T04:39:51;7.32;;;4.63;;
1014;SDS011;8170;48.118;11.628;2023-04-15T04:40:53;5.05;;;3.85;;
1014;SDS011;8170;48.118;11.628;2023-04-15T04:41:56;6.60;;;3.65;;
1014;SDS011;8170;48.118;11.628;2023-04-15T04:43:01;7.53;;;3.83;;
1014;SDS011;8170;48.118;11.628;2023-04-15T04:44:04;4.28;;;3.45;;
1014;SDS011;8170;48.118;11.628;2023-04-15T04:45:07;6.70;;;4.20;;
1014;SDS011;8170;48.118;11.628;2023-04-15T04:46:12;6.05;;;4.75;;
1014;SDS011;8170;48.118;11.628;2023-04-15T04:47:14;6.25;;;3.00;;
1014;SDS011;8170;48.118;11.628;2023-04-15T04:48:17;5.95;;;3.47;;
1014;SDS011;8170;48.118;11.628;2023-04-15T04:49:22;7.35;;;3.45;;
1014;SDS011;8170;48.118;11.628;2023-04-15T04:50:24;6.00;;;3.08;;
1014;SDS011;8170;48.118;11.628;2023-04-15T04:51:30;4.90;;;3.30;;
1014;SDS011;8170;48.118;11.628;2023-04-15T04:52:32;7.95;;;3.70;;
1014;SDS011;8170;48.118;11.628;2023-04-15T04:53:44;6.03;;;3.72;;
1014;SDS011;8170;48.118;11.628;2023-04-15T04:54:50;4.40;;;3.30;;
1014;SDS011;8170;48.118;11.628;2023-04-15T04:55:53;5.78;;;3.08;;
1014;SDS011;8170;48.118;11.628;2023-04-15T04:56:55;5.35;;;3.40;;
1014;SDS011;8170;48.118;11.628;2023-04-15T04:57:59;4.10;;;2.97;;
1014;SDS011;8170;48.118;11.628;2023-04-15T04:59:01;5.20;;;2.97;;
1014;SDS011;8170;48.118;11.628;2023-04-15T05:00:05;3.60;;;2.70;;
1014;SDS011;8170;48.118;11.628;2023-04-15T05:01:08;5.43;;;3.13;;
1014;SDS011;8170;48.118;11.628;2023-04-15T05:02:13;5.60;;;3.30;;
1014;SDS011;8170;48.118;11.628;2023-04-15T05:03:15;6.53;;;3.05;;
1014;SDS011;8170;48.118;11.628;2023-04-15T05:04:24;5.47;;;3.80;;
1014;SDS011;8170;48.118;11.628;2023-04-15T05:05:26;5.57;;;3.05;;
1014;SDS011;8170;48.118;11.628;2023-04-15T05:06:29;4.07;;;3.42;;
1014;SDS011;8170;48.118;11.628;2023-04-15T05:07:33;6.13;;;3.38;;
1014;SDS011;8170;48.118;11.628;2023-04-15T05:08:37;4.80;;;3.00;;
1014;SDS011;8170;48.118;11.628;2023-04-15T05:09:42;5.80;;;3.28;;
1014;SDS011;8170;48.118;11.628;2023-04-15T05:10:52;9.32;;;3.30;;
1014;SDS011;8170;48.118;11.628;2023-04-15T05:11:55;6.72;;;3.65;;
1014;SDS011;8170;48.118;11.628;2023-04-15T05:12:59;3.88;;;2.88;;
1014;SDS011;8170;48.118;11.628;2023-04-15T05:14:02;6.45;;;3.05;;
1014;SDS011;8170;48.118;11.628;2023-04-15T05:15:05;4.30;;;2.40;;
1014;SDS011;8170;48.118;11.628;2023-04-15T05:16:11;5.05;;;3.30;;
1014;SDS011;8170;48.118;11.628;2023-04-15T05:17:14;5.25;;;3.33;;
1014;SDS011;8170;48.118;11.628;2023-04-15T05:18:21;4.70;;;2.85;;
1014;SDS011;8170;48.118;11.628;2023-04-15T05:19:23;4.40;;;3.13;;
1014;SDS011;8170;48.118;11.628;2023-04-15T05:20:29;3.83;;;2.80;;
1014;SDS011;8170;48.118;11.628;2023-04-15T05:21:32;7.95;;;3.80;;
1014;SDS011;8170;48.118;11.628;2023-04-15T05:22:34;4.88;;;2.60;;
1014;SDS011;8170;48.118;11.628;2023-04-15T05:23:40;5.05;;;2.97;;
1014;SDS011;8170;48.118;11.628;2023-04-15T05:24:42;4.40;;;3.00;;
1014;SDS011;8170;48.118;11.628;2023-04-15T05:25:45;9.07;;;3.30;;
1014;SDS011;8170;48.118;11.628;2023-04-15T05:26:52;5.55;;;3.65;;
1014;SDS011;8170;48.118;11.628;2023-04-15T05:28:01;8.85;;;3.30;;
1014;SDS011;8170;48.118;11.628;2023-04-15T05:29:03;6.18;;;3.00;;
1014;SDS011;8170;48.118;11.628;2023-04-15T05:30:08;6.32;;;3.05;;
1014;SDS011;8170;48.118;11.628;2023-04-15T05:31:14;6.88;;;3.40;;
1014;SDS011;8170;48.118;11.628;2023-04-15T05:32:22;5.65;;;3.25;;
1014;SDS011;8170;48.118;11.628;2023-04-15T05:33:25;5.07;;;3.30;;
1014;SDS011;8170;48.118;11.628;2023-04-15T05:34:27;5.40;;;3.33;;
1014;SDS011;8170;48.118;11.628;2023-04-15T05:35:31;5.90;;;3.42;;
1014;SDS011;8170;48.118;11.628;2023-04-15T05:36:33;6.47;;;3.10;;
1014;SDS011;8170;48.118;11.628;2023-04-15T05:37:36;6.30;;;3.30;;
1014;SDS011;8170;48.118;11.628;2023-04-15T05:38:40;5.70;;;2.95;;
1014;SDS011;8170;48.118;11.628;2023-04-15T05:39:43;6.50;;;3.38;;
1014;SDS011;8170;48.118;11.628;2023-04-15T05:40:52;5.50;;;2.95;;
1014;SDS011;8170;48.118;11.628;2023-04-15T05:41:55;6.15;;;3.35;;
1014;SDS011;8170;48.118;11.628;2023-04-15T05:43:01;7.40;;;2.78;;
1014;SDS011;8170;48.118;11.628;2023-04-15T05:44:04;5.75;;;2.75;;
1014;SDS011;8170;48.118;11.628;2023-04-15T05:45:08;4.47;;;2.95;;
1014;SDS011;8170;48.118;11.628;2023-04-15T05:46:11;5.97;;;3.10;;
1014;SDS011;8170;48.118;11.628;2023-04-15T05:47:13;10.75;;;3.05;;
1014;SDS011;8170;48.118;11.628;2023-04-15T05:48:32;7.50;;;3.33;;
1014;SDS011;8170;48.118;11.628;2023-04-15T05:49:43;6.90;;;2.70;;
1014;SDS011;8170;48.118;11.628;2023-04-15T05:50:46;4.32;;;2.80;;
1014;SDS011;8170;48.118;11.628;2023-04-15T05:51:52;7.90;;;2.83;;
1014;SDS011;8170;48.118;11.628;2023-04-15T05:52:54;4.30;;;2.15;;
1014;SDS011;8170;48.118;11.628;2023-04-15T05:54:00;5.78;;;2.40;;
1014;SDS011;8170;48.118;11.628;2023-04-15T05:55:03;4.30;;;3.05;;
1014;SDS011;8170;48.118;11.628;2023-04-15T05:56:07;3.85;;;2.53;;
1014;SDS011;8170;48.118;11.628;2023-04-15T05:57:21;4.03;;;2.40;;
1014;SDS011;8170;48.118;11.628;2023-04-15T05:58:24;3.83;;;2.90;;
1014;SDS011;8170;48.118;11.628;2023-04-15T05:59:29;4.85;;;2.25;;
1014;SDS011;8170;48.118;11.628;2023-04-15T06:00:33;5.15;;;2.72;;
1014;SDS011;8170;48.118;11.628;2023-04-15T06:01:36;4.07;;;2.30;;
1014;SDS011;8170;48.118;11.628;2023-04-15T06:02:42;4.10;;;2.25;;
1014;SDS011;8170;48.118;11.628;2023-04-15T06:03:56;3.70;;;2.60;;
1014;SDS011;8170;48.118;11.628;2023-04-15T06:05:02;5.35;;;2.30;;
1014;SDS011;8170;48.118;11.628;2023-04-15T06:06:12;4.63;;;2.90;;
1014;SDS011;8170;48.118;11.628;2023-04-15T06:07:14;3.42;;;2.10;;
1014;SDS011;8170;48.118;11.628;2023-04-15T06:08:20;4.13;;;2.10;;
1014;SDS011;8170;48.118;11.628;2023-04-15T06:09:22;4.63;;;2.20;;
1014;SDS011;8170;48.118;11.628;2023-04-15T06:10:25;7.00;;;2.55;;
1014;SDS011;8170;48.118;11.628;2023-04-15T06:11:32;4.95;;;2.10;;
1014;SDS011;8170;48.118;11.628;2023-04-15T06:12:40;4.80;;;2.40;;
1014;SDS011;8170;48.118;11.628;2023-04-15T06:13:44;4.35;;;2.15;;
1014;SDS011;8170;48.118;11.628;2023-04-15T06:14:49;4.07;;;2.53;;
1014;SDS011;8170;48.118;11.628;2023-04-15T06:15:52;7.28;;;1.90;;
1014;SDS011;8170;48.118;11.628;2023-04-15T06:16:55;5.60;;;2.17;;
1014;SDS011;8170;48.118;11.628;2023-04-15T06:18:00;4.28;;;3.05;;
1014;SDS011;8170;48.118;11.628;2023-04-15T06:19:05;3.47;;;2.47;;
1014;SDS011;8170;48.118;11.628;2023-04-15T06:20:13;5.97;;;2.17;;
1014;SDS011;8170;48.118;11.628;2023-04-15T06:21:43;5.43;;;2.58;;
1014;SDS011;8170;48.118;11.628;2023-04-15T06:22:54;4.55;;;2.20;;
1014;SDS011;8170;48.118;11.628;2023-04-15T06:23:58;5.97;;;2.30;;
1014;SDS011;8170;48.118;11.628;2023-04-15T06:25:02;5.45;;;2.75;;
1014;SDS011;8170;48.118;11.628;2023-04-15T06:26:11;5.88;;;2.33;;
1014;SDS011;8170;48.118;11.628;2023-04-15T06:27:14;4.75;;;2.20;;
1014;SDS011;8170;48.118;11.628;2023-04-15T06:28:27;3.63;;;2.53;;
1014;SDS011;8170;48.118;11.628;2023-04-15T06:29:45;5.90;;;2.55;;
1014;SDS011;8170;48.118;11.628;2023-04-15T06:31:02;3.15;;;1.55;;
1014;SDS011;8170;48.118;11.628;2023-04-15T06:32:04;4.40;;;2.45;;
1014;SDS011;8170;48.118;11.628;2023-04-15T06:33:11;5.32;;;2.00;;
1014;SDS011;8170;48.118;11.628;2023-04-15T06:34:15;5.20;;;2.30;;
1014;SDS011;8170;48.118;11.628;2023-04-15T06:35:21;6.05;;;2.50;;
1014;SDS011;8170;48.118;11.628;2023-04-15T06:36:23;3.10;;;2.20;;
1014;SDS011;8170;48.118;11.628;2023-04-15T06:37:33;4.55;;;2.38;;
1014;SDS011;8170;48.118;11.628;2023-04-15T06:38:37;3.67;;;2.55;;
1014;SDS011;8170;48.118;11.628;2023-04-15T06:39:53;3.65;;;2.40;;